Monday, November 20, 2017, 4:15 AM GMT
Back to Local

CWQO, Ile Bicquette, Que.

Location: , , Canada Lat: 48.416
Local Time: 4:15 AM GMT ( 4:15 GMT) Lon: -68.893
Time Zone: GMT Elev: 22 ft

Show me the last for .
Show Coded

Time T Td Feel RH Dir Speed Gust Alt SLP Vis Weather Sky Remarks
2017-11-20 03:00 32 26 17 79 230° 32 - - - 0 Peak wind: 37 mph (33 kts) from 230° at 48 min
2017-11-20 02:00 33 28 17 82 240° 33 39 - - 0 Peak wind: 40 mph (35 kts) from 230° at 47 min
2017-11-20 01:00 33 29 20 82 250° 30 - - - 0 Peak wind: 39 mph (34 kts) from 250° at 07 min
2017-11-20 00:00 34 31 20 89 250° 30 36 - - 0 Peak wind: 35 mph (31 kts) from 250° at 58 min
2017-11-19 23:00 33 34 21 104 270° 21 - - - 0 Peak wind: 27 mph (24 kts) from 270° at 20 min
2017-11-19 22:00 36 35 - 97 140° 2 - - - 0 None
2017-11-19 21:00 36 35 29 97 60° 8 - - - 0 None
2017-11-19 20:00 36 35 27 97 40° 14 - - - 0 Peak wind: 21 mph (19 kts) from 40° at 18 min
2017-11-19 19:00 35 35 25 97 30° 16 - - - 0 Peak wind: 20 mph (18 kts) from 30° at 53 min
2017-11-19 18:00 35 35 24 97 30° 15 21 - - 0 Peak wind: 21 mph (19 kts) from 40° at 14 min
2017-11-19 17:00 35 34 26 95 40° 16 - - - 0 Peak wind: 21 mph (19 kts) from 40° at 39 min
2017-11-19 16:00 36 34 26 94 40° 15 - - - 0 Peak wind: 20 mph (18 kts) from 30° at 28 min
2017-11-19 15:00 35 34 24 94 50° 13 18 - - 0 Peak wind: 21 mph (19 kts) from 60° at 47 min
2017-11-19 14:00 34 31 23 89 50° 14 20 - - 0 Peak wind: 19 mph (17 kts) from 60° at 02 min
2017-11-19 13:00 35 33 27 93 60° 9 - - - 0 None
2017-11-19 12:00 34 32 27 92 60° 8 - - - 0 None
2017-11-19 11:00 31 31 24 97 70° 8 - - - 0 None
2017-11-19 10:00 32 29 26 87 70° 7 - - - 0 None
2017-11-19 09:00 31 27 22 86 70° 9 - - - 0 None
2017-11-19 08:00 31 25 23 77 90° 8 - - - 0 None
2017-11-19 07:00 30 25 22 79 70° 9 - - - 0 None
2017-11-19 06:00 31 24 24 73 70° 8 - - - 0 None
2017-11-19 05:00 29 23 22 79 70° 7 - - - 0 None

Support USWX by starting your Amazon purchase here.